CXA6889 ZSQD-ZYTX
Flight info
| Callsign | CXA6889 |
|---|---|
| Flight time | N/A |
| Altitude | 24600 |
| Route | TEKAM W172 IGDEG W173 NIXEP W8 DOBGA W202 UDETI A588 TOSID |
| Aircraft | B38M/M-SDE1FGHILORVWXY/HB1 |
Departure
| Time | 2026-05-06 12:23 |
|---|---|
| Airport | Qingdao Jiaodong International Airport (ZSQD) |
Arrival
| Time | N/A |
|---|---|
| Airport | Shenyang Taoxian International Airport (ZYTX) |
| Time | Latitude | Longitude | Altitude | Speed | Heading |
|---|---|---|---|---|---|
| 2026-05-06 11:53 | 36.36568 | 120.09084 | 37 ft | 0 kts | 132° |
| 2026-05-06 12:09 | 36.36569 | 120.09084 | 37 ft | 1 kts | 132° |
| 2026-05-06 12:09 | 36.36578 | 120.09071 | 36 ft | 3 kts | 132° |
| 2026-05-06 12:09 | 36.36592 | 120.09052 | 26 ft | 3 kts | 132° |
| 2026-05-06 12:10 | 36.36606 | 120.09033 | 38 ft | 3 kts | 132° |
| 2026-05-06 12:10 | 36.36617 | 120.09019 | 38 ft | 3 kts | 139° |
| 2026-05-06 12:10 | 36.36632 | 120.09009 | 38 ft | 3 kts | 181° |
| 2026-05-06 12:10 | 36.36648 | 120.09016 | 38 ft | 3 kts | 218° |
| 2026-05-06 12:11 | 36.36657 | 120.09025 | 39 ft | 0 kts | 222° |
| 2026-05-06 12:15 | 36.36651 | 120.09019 | 38 ft | 4 kts | 222° |
| 2026-05-06 12:15 | 36.36649 | 120.08976 | 40 ft | 5 kts | 300° |
| 2026-05-06 12:15 | 36.36676 | 120.08954 | 40 ft | 1 kts | 335° |
| 2026-05-06 12:15 | 36.36695 | 120.08950 | 40 ft | 2 kts | 17° |
| 2026-05-06 12:16 | 36.36720 | 120.08973 | 40 ft | 7 kts | 43° |
| 2026-05-06 12:16 | 36.36767 | 120.09031 | 40 ft | 9 kts | 39° |
| 2026-05-06 12:16 | 36.36818 | 120.09092 | 40 ft | 7 kts | 57° |
| 2026-05-06 12:16 | 36.36841 | 120.09168 | 40 ft | 13 kts | 72° |
| 2026-05-06 12:17 | 36.36874 | 120.09296 | 40 ft | 19 kts | 72° |
| 2026-05-06 12:17 | 36.36912 | 120.09447 | 39 ft | 17 kts | 73° |
| 2026-05-06 12:17 | 36.36950 | 120.09543 | 39 ft | 3 kts | 36° |
| 2026-05-06 12:17 | 36.36958 | 120.09548 | 40 ft | 5 kts | 19° |
| 2026-05-06 12:18 | 36.37252 | 120.09438 | 39 ft | 18 kts | 342° |
| 2026-05-06 12:18 | 36.37440 | 120.09364 | 38 ft | 20 kts | 342° |
| 2026-05-06 12:19 | 36.37580 | 120.09309 | 40 ft | 14 kts | 342° |
| 2026-05-06 12:19 | 36.37659 | 120.09277 | 39 ft | 15 kts | 342° |
| 2026-05-06 12:19 | 36.37767 | 120.09235 | 40 ft | 15 kts | 343° |
| 2026-05-06 12:19 | 36.37868 | 120.09194 | 40 ft | 14 kts | 343° |
| 2026-05-06 12:20 | 36.37946 | 120.09163 | 40 ft | 7 kts | 342° |
| 2026-05-06 12:20 | 36.37999 | 120.09149 | 40 ft | 7 kts | 13° |
| 2026-05-06 12:20 | 36.38019 | 120.09181 | 39 ft | 7 kts | 68° |
| 2026-05-06 12:20 | 36.38022 | 120.09190 | 40 ft | 0 kts | 69° |
| 2026-05-06 12:21 | 36.38027 | 120.09208 | 41 ft | 5 kts | 69° |
| 2026-05-06 12:21 | 36.38040 | 120.09276 | 42 ft | 11 kts | 85° |
| 2026-05-06 12:22 | 36.37997 | 120.09368 | 41 ft | 15 kts | 154° |
| 2026-05-06 12:22 | 36.37969 | 120.09380 | 41 ft | 0 kts | 162° |
| 2026-05-06 12:22 | 36.37963 | 120.09383 | 40 ft | 4 kts | 162° |
| 2026-05-06 12:22 | 36.37861 | 120.09424 | 41 ft | 41 kts | 162° |
| 2026-05-06 12:23 | 36.37336 | 120.09631 | 40 ft | 115 kts | 162° |
| 2026-05-06 12:23 | 36.36381 | 120.10005 | 191 ft | 162 kts | 162° |
| 2026-05-06 12:23 | 36.35280 | 120.10411 | 1036 ft | 162 kts | 166° |
| 2026-05-06 12:23 | 36.34232 | 120.10821 | 2133 ft | 154 kts | 168° |
| 2026-05-06 12:24 | 36.33189 | 120.11275 | 2874 ft | 162 kts | 162° |
| 2026-05-06 12:24 | 36.32182 | 120.12074 | 3473 ft | 183 kts | 147° |
| 2026-05-06 12:24 | 36.31143 | 120.13108 | 4030 ft | 201 kts | 148° |
| 2026-05-06 12:24 | 36.29966 | 120.14220 | 4552 ft | 224 kts | 149° |
| 2026-05-06 12:25 | 36.28650 | 120.15428 | 5104 ft | 247 kts | 146° |
| 2026-05-06 12:25 | 36.27549 | 120.17201 | 5659 ft | 278 kts | 115° |
| 2026-05-06 12:25 | 36.27284 | 120.19661 | 6233 ft | 302 kts | 81° |
| 2026-05-06 12:25 | 36.27949 | 120.22105 | 7254 ft | 298 kts | 69° |
| 2026-05-06 12:26 | 36.28614 | 120.24545 | 8237 ft | 301 kts | 71° |
| 2026-05-06 12:26 | 36.29265 | 120.27037 | 9161 ft | 305 kts | 71° |
| 2026-05-06 12:26 | 36.29942 | 120.29543 | 10084 ft | 308 kts | 65° |
| 2026-05-06 12:26 | 36.31144 | 120.31758 | 10737 ft | 317 kts | 41° |
| 2026-05-06 12:27 | 36.33038 | 120.33208 | 11279 ft | 326 kts | 15° |
| 2026-05-06 12:27 | 36.35287 | 120.33558 | 11900 ft | 330 kts | 352° |
| 2026-05-06 12:27 | 36.37526 | 120.32881 | 12591 ft | 334 kts | 339° |
| 2026-05-06 12:27 | 36.39761 | 120.32030 | 13439 ft | 338 kts | 340° |
| 2026-05-06 12:28 | 36.42055 | 120.31271 | 14170 ft | 347 kts | 350° |
| 2026-05-06 12:28 | 36.44495 | 120.31374 | 14592 ft | 357 kts | 9° |
| 2026-05-06 12:28 | 36.46893 | 120.32263 | 14834 ft | 362 kts | 14° |
| 2026-05-06 12:28 | 36.48484 | 120.32876 | 15404 ft | 362 kts | 13° |
| 2026-05-06 12:29 | 36.51738 | 120.34119 | 16290 ft | 372 kts | 13° |
| 2026-05-06 12:29 | 36.54230 | 120.35069 | 16998 ft | 376 kts | 13° |
| 2026-05-06 12:29 | 36.56752 | 120.36032 | 17649 ft | 383 kts | 13° |
| 2026-05-06 12:29 | 36.59280 | 120.36998 | 18291 ft | 387 kts | 13° |
| 2026-05-06 12:30 | 36.61871 | 120.37988 | 18872 ft | 392 kts | 12° |
| 2026-05-06 12:30 | 36.64485 | 120.38987 | 19479 ft | 395 kts | 12° |
| 2026-05-06 12:30 | 36.67123 | 120.39996 | 20070 ft | 398 kts | 12° |
| 2026-05-06 12:30 | 36.69783 | 120.41015 | 20642 ft | 402 kts | 11° |
| 2026-05-06 12:31 | 36.72470 | 120.42045 | 21230 ft | 406 kts | 11° |
| 2026-05-06 12:31 | 36.75176 | 120.43083 | 21803 ft | 409 kts | 11° |
| 2026-05-06 12:31 | 36.77025 | 120.43792 | 22200 ft | 412 kts | 11° |
| 2026-05-06 12:32 | 36.81610 | 120.45553 | 23149 ft | 418 kts | 10° |
| 2026-05-06 12:32 | 36.86268 | 120.47346 | 23987 ft | 424 kts | 10° |
| 2026-05-06 12:32 | 36.89094 | 120.48434 | 24458 ft | 427 kts | 10° |
| 2026-05-06 12:32 | 36.91952 | 120.49536 | 24524 ft | 430 kts | 10° |
| 2026-05-06 12:33 | 36.94812 | 120.50639 | 24545 ft | 430 kts | 10° |
| 2026-05-06 12:33 | 36.96709 | 120.51371 | 24551 ft | 431 kts | 10° |
| 2026-05-06 12:33 | 36.98640 | 120.52117 | 24555 ft | 431 kts | 10° |